sensor_id;sensor_type;location;lat;lon;timestamp;temperature;humidity
33645;DHT22;19986;48.190;16.366;2024-01-30T00:00:21;5.80;99.90
33645;DHT22;19986;48.190;16.366;2024-01-30T00:02:55;5.70;99.90
33645;DHT22;19986;48.190;16.366;2024-01-30T00:05:25;5.60;99.90
33645;DHT22;19986;48.190;16.366;2024-01-30T00:07:51;5.50;99.90
33645;DHT22;19986;48.190;16.366;2024-01-30T00:10:17;5.50;99.90
33645;DHT22;19986;48.190;16.366;2024-01-30T00:12:44;5.50;99.90
33645;DHT22;19986;48.190;16.366;2024-01-30T00:15:11;5.50;99.90
33645;DHT22;19986;48.190;16.366;2024-01-30T00:17:38;5.50;99.90
33645;DHT22;19986;48.190;16.366;2024-01-30T00:20:10;5.40;99.90
33645;DHT22;19986;48.190;16.366;2024-01-30T00:22:38;5.40;99.90
33645;DHT22;19986;48.190;16.366;2024-01-30T00:25:09;5.40;99.90
33645;DHT22;19986;48.190;16.366;2024-01-30T00:27:35;5.40;99.90
33645;DHT22;19986;48.190;16.366;2024-01-30T00:30:01;5.30;99.90
33645;DHT22;19986;48.190;16.366;2024-01-30T00:32:27;5.30;99.90
33645;DHT22;19986;48.190;16.366;2024-01-30T00:34:53;5.30;99.90
33645;DHT22;19986;48.190;16.366;2024-01-30T00:37:19;5.30;99.90
33645;DHT22;19986;48.190;16.366;2024-01-30T00:39:45;5.30;99.90
33645;DHT22;19986;48.190;16.366;2024-01-30T00:42:11;5.20;99.90
33645;DHT22;19986;48.190;16.366;2024-01-30T00:44:37;5.30;99.90
33645;DHT22;19986;48.190;16.366;2024-01-30T00:47:04;5.30;99.90
33645;DHT22;19986;48.190;16.366;2024-01-30T00:49:31;5.30;99.90
33645;DHT22;19986;48.190;16.366;2024-01-30T00:51:56;5.20;99.90
33645;DHT22;19986;48.190;16.366;2024-01-30T00:54:23;5.20;99.90
33645;DHT22;19986;48.190;16.366;2024-01-30T00:56:49;5.20;99.90
33645;DHT22;19986;48.190;16.366;2024-01-30T00:59:15;5.10;99.90
33645;DHT22;19986;48.190;16.366;2024-01-30T01:01:41;5.10;99.90
33645;DHT22;19986;48.190;16.366;2024-01-30T01:04:07;5.10;99.90
33645;DHT22;19986;48.190;16.366;2024-01-30T01:06:33;5.10;99.90
33645;DHT22;19986;48.190;16.366;2024-01-30T01:08:59;5.10;99.90
33645;DHT22;19986;48.190;16.366;2024-01-30T01:11:25;5.10;99.90
33645;DHT22;19986;48.190;16.366;2024-01-30T01:13:51;5.10;99.90
33645;DHT22;19986;48.190;16.366;2024-01-30T01:16:17;5.00;99.90
33645;DHT22;19986;48.190;16.366;2024-01-30T01:18:43;5.00;99.90
33645;DHT22;19986;48.190;16.366;2024-01-30T01:21:08;5.00;99.90
33645;DHT22;19986;48.190;16.366;2024-01-30T01:23:34;5.00;99.90
33645;DHT22;19986;48.190;16.366;2024-01-30T01:26:00;5.10;99.90
33645;DHT22;19986;48.190;16.366;2024-01-30T01:28:26;5.10;99.90
33645;DHT22;19986;48.190;16.366;2024-01-30T01:30:55;5.10;99.90
33645;DHT22;19986;48.190;16.366;2024-01-30T01:33:24;5.10;99.90
33645;DHT22;19986;48.190;16.366;2024-01-30T01:35:53;5.10;99.90
33645;DHT22;19986;48.190;16.366;2024-01-30T01:38:19;5.10;99.90
33645;DHT22;19986;48.190;16.366;2024-01-30T01:40:46;5.10;99.90
33645;DHT22;19986;48.190;16.366;2024-01-30T01:43:13;5.10;99.90
33645;DHT22;19986;48.190;16.366;2024-01-30T01:45:39;5.10;99.90
33645;DHT22;19986;48.190;16.366;2024-01-30T01:48:06;5.20;99.90
33645;DHT22;19986;48.190;16.366;2024-01-30T01:50:35;5.20;99.90
33645;DHT22;19986;48.190;16.366;2024-01-30T01:53:02;5.30;99.90
33645;DHT22;19986;48.190;16.366;2024-01-30T01:55:30;5.20;99.90
33645;DHT22;19986;48.190;16.366;2024-01-30T01:57:57;5.30;99.90
33645;DHT22;19986;48.190;16.366;2024-01-30T02:00:24;5.30;99.90
33645;DHT22;19986;48.190;16.366;2024-01-30T02:02:51;5.40;99.90
33645;DHT22;19986;48.190;16.366;2024-01-30T02:05:23;5.30;99.90
33645;DHT22;19986;48.190;16.366;2024-01-30T02:07:52;5.40;99.90
33645;DHT22;19986;48.190;16.366;2024-01-30T02:10:19;5.40;99.90
33645;DHT22;19986;48.190;16.366;2024-01-30T02:12:46;5.30;99.90
33645;DHT22;19986;48.190;16.366;2024-01-30T02:15:13;5.30;99.90
33645;DHT22;19986;48.190;16.366;2024-01-30T02:17:40;5.30;99.90
33645;DHT22;19986;48.190;16.366;2024-01-30T02:20:07;5.30;99.90
33645;DHT22;19986;48.190;16.366;2024-01-30T02:22:34;5.30;99.90
33645;DHT22;19986;48.190;16.366;2024-01-30T02:25:02;5.20;99.90
33645;DHT22;19986;48.190;16.366;2024-01-30T02:27:29;5.30;99.90
33645;DHT22;19986;48.190;16.366;2024-01-30T02:29:56;5.30;99.90
33645;DHT22;19986;48.190;16.366;2024-01-30T02:32:22;5.20;99.90
33645;DHT22;19986;48.190;16.366;2024-01-30T02:34:49;5.30;99.90
33645;DHT22;19986;48.190;16.366;2024-01-30T02:37:16;5.20;99.90
33645;DHT22;19986;48.190;16.366;2024-01-30T02:39:42;5.30;99.90
33645;DHT22;19986;48.190;16.366;2024-01-30T02:42:08;5.30;99.90
33645;DHT22;19986;48.190;16.366;2024-01-30T02:44:35;5.20;99.90
33645;DHT22;19986;48.190;16.366;2024-01-30T02:47:06;5.20;99.90
33645;DHT22;19986;48.190;16.366;2024-01-30T02:49:32;5.20;99.90
33645;DHT22;19986;48.190;16.366;2024-01-30T02:51:58;5.30;99.90
33645;DHT22;19986;48.190;16.366;2024-01-30T02:54:24;5.20;99.90
33645;DHT22;19986;48.190;16.366;2024-01-30T02:56:50;5.20;99.90
33645;DHT22;19986;48.190;16.366;2024-01-30T02:59:16;5.20;99.90
33645;DHT22;19986;48.190;16.366;2024-01-30T03:01:45;5.20;99.90
33645;DHT22;19986;48.190;16.366;2024-01-30T03:04:12;5.20;99.90
33645;DHT22;19986;48.190;16.366;2024-01-30T03:06:38;5.10;99.90
33645;DHT22;19986;48.190;16.366;2024-01-30T03:09:04;5.10;99.90
33645;DHT22;19986;48.190;16.366;2024-01-30T03:11:30;5.20;99.90
33645;DHT22;19986;48.190;16.366;2024-01-30T03:13:59;5.20;99.90
33645;DHT22;19986;48.190;16.366;2024-01-30T03:16:25;5.10;99.90
33645;DHT22;19986;48.190;16.366;2024-01-30T03:18:51;5.10;99.90
33645;DHT22;19986;48.190;16.366;2024-01-30T03:21:17;5.10;99.90
33645;DHT22;19986;48.190;16.366;2024-01-30T03:23:43;5.10;99.90
33645;DHT22;19986;48.190;16.366;2024-01-30T03:26:09;5.10;99.90
33645;DHT22;19986;48.190;16.366;2024-01-30T03:28:35;5.10;99.90
33645;DHT22;19986;48.190;16.366;2024-01-30T03:31:01;5.10;99.90
33645;DHT22;19986;48.190;16.366;2024-01-30T03:33:27;5.10;99.90
33645;DHT22;19986;48.190;16.366;2024-01-30T03:35:53;5.10;99.90
33645;DHT22;19986;48.190;16.366;2024-01-30T03:38:19;5.10;99.90
33645;DHT22;19986;48.190;16.366;2024-01-30T03:40:48;5.10;99.90
33645;DHT22;19986;48.190;16.366;2024-01-30T03:43:14;5.10;99.90
33645;DHT22;19986;48.190;16.366;2024-01-30T03:45:40;5.10;99.90
33645;DHT22;19986;48.190;16.366;2024-01-30T03:48:06;5.00;99.90
33645;DHT22;19986;48.190;16.366;2024-01-30T03:50:32;5.00;99.90
33645;DHT22;19986;48.190;16.366;2024-01-30T03:52:58;5.00;99.90
33645;DHT22;19986;48.190;16.366;2024-01-30T03:55:24;4.90;99.90
33645;DHT22;19986;48.190;16.366;2024-01-30T03:57:50;4.80;99.90
33645;DHT22;19986;48.190;16.366;2024-01-30T04:00:16;4.80;99.90
33645;DHT22;19986;48.190;16.366;2024-01-30T04:02:42;4.80;99.90
33645;DHT22;19986;48.190;16.366;2024-01-30T04:05:08;4.80;99.90
33645;DHT22;19986;48.190;16.366;2024-01-30T04:07:34;4.80;99.90
33645;DHT22;19986;48.190;16.366;2024-01-30T04:10:01;4.70;99.90
33645;DHT22;19986;48.190;16.366;2024-01-30T04:12:27;4.70;99.90
33645;DHT22;19986;48.190;16.366;2024-01-30T04:14:54;4.70;99.90
33645;DHT22;19986;48.190;16.366;2024-01-30T04:17:20;4.70;99.90
33645;DHT22;19986;48.190;16.366;2024-01-30T04:19:46;4.70;99.90
33645;DHT22;19986;48.190;16.366;2024-01-30T04:22:12;4.70;99.90
33645;DHT22;19986;48.190;16.366;2024-01-30T04:24:38;4.60;99.90
33645;DHT22;19986;48.190;16.366;2024-01-30T04:27:04;4.60;99.90
33645;DHT22;19986;48.190;16.366;2024-01-30T04:29:30;4.60;99.90
33645;DHT22;19986;48.190;16.366;2024-01-30T04:31:56;4.50;99.90
33645;DHT22;19986;48.190;16.366;2024-01-30T04:34:21;4.50;99.90
33645;DHT22;19986;48.190;16.366;2024-01-30T04:36:47;4.50;99.90
33645;DHT22;19986;48.190;16.366;2024-01-30T04:39:13;4.50;99.90
33645;DHT22;19986;48.190;16.366;2024-01-30T04:41:40;4.50;99.90
33645;DHT22;19986;48.190;16.366;2024-01-30T04:44:06;4.50;99.90
33645;DHT22;19986;48.190;16.366;2024-01-30T04:46:32;4.50;99.90
33645;DHT22;19986;48.190;16.366;2024-01-30T04:49:00;4.40;99.90
33645;DHT22;19986;48.190;16.366;2024-01-30T04:51:29;4.40;99.90
33645;DHT22;19986;48.190;16.366;2024-01-30T04:53:57;4.40;99.90
33645;DHT22;19986;48.190;16.366;2024-01-30T04:56:23;4.30;99.90
33645;DHT22;19986;48.190;16.366;2024-01-30T04:58:48;4.40;99.90
33645;DHT22;19986;48.190;16.366;2024-01-30T05:01:15;4.30;99.90
33645;DHT22;19986;48.190;16.366;2024-01-30T05:03:42;4.30;99.90
33645;DHT22;19986;48.190;16.366;2024-01-30T05:06:08;4.30;99.90
33645;DHT22;19986;48.190;16.366;2024-01-30T05:08:34;4.20;99.90
33645;DHT22;19986;48.190;16.366;2024-01-30T05:11:05;4.10;99.90
33645;DHT22;19986;48.190;16.366;2024-01-30T05:13:31;4.20;99.90
33645;DHT22;19986;48.190;16.366;2024-01-30T05:15:57;4.10;99.90
33645;DHT22;19986;48.190;16.366;2024-01-30T05:18:23;4.10;99.90
33645;DHT22;19986;48.190;16.366;2024-01-30T05:20:52;4.10;99.90
33645;DHT22;19986;48.190;16.366;2024-01-30T05:23:17;4.10;99.90
33645;DHT22;19986;48.190;16.366;2024-01-30T05:25:43;4.10;99.90
33645;DHT22;19986;48.190;16.366;2024-01-30T05:28:09;4.10;99.90
33645;DHT22;19986;48.190;16.366;2024-01-30T05:30:35;4.10;99.90
33645;DHT22;19986;48.190;16.366;2024-01-30T05:33:01;4.00;99.90
33645;DHT22;19986;48.190;16.366;2024-01-30T05:35:27;4.00;99.90
33645;DHT22;19986;48.190;16.366;2024-01-30T05:37:53;4.00;99.90
33645;DHT22;19986;48.190;16.366;2024-01-30T05:40:19;4.00;99.90
33645;DHT22;19986;48.190;16.366;2024-01-30T05:42:45;4.00;99.90
33645;DHT22;19986;48.190;16.366;2024-01-30T05:45:11;4.00;99.90
33645;DHT22;19986;48.190;16.366;2024-01-30T05:47:36;4.10;99.90
33645;DHT22;19986;48.190;16.366;2024-01-30T05:50:02;4.10;99.90
33645;DHT22;19986;48.190;16.366;2024-01-30T05:52:29;4.10;99.90
33645;DHT22;19986;48.190;16.366;2024-01-30T05:54:54;4.20;99.90
33645;DHT22;19986;48.190;16.366;2024-01-30T05:57:20;4.10;99.90
33645;DHT22;19986;48.190;16.366;2024-01-30T05:59:46;4.10;99.90
33645;DHT22;19986;48.190;16.366;2024-01-30T06:02:13;4.10;99.90
33645;DHT22;19986;48.190;16.366;2024-01-30T06:04:39;4.20;99.90
33645;DHT22;19986;48.190;16.366;2024-01-30T06:07:05;4.20;99.90
33645;DHT22;19986;48.190;16.366;2024-01-30T06:09:32;4.20;99.90
33645;DHT22;19986;48.190;16.366;2024-01-30T06:11:58;4.10;99.90
33645;DHT22;19986;48.190;16.366;2024-01-30T06:14:23;4.20;99.90
33645;DHT22;19986;48.190;16.366;2024-01-30T06:16:50;4.20;99.90
33645;DHT22;19986;48.190;16.366;2024-01-30T06:19:15;4.20;99.90
33645;DHT22;19986;48.190;16.366;2024-01-30T06:21:41;4.20;99.90
33645;DHT22;19986;48.190;16.366;2024-01-30T06:24:07;4.20;99.90
33645;DHT22;19986;48.190;16.366;2024-01-30T06:26:34;4.30;99.90
33645;DHT22;19986;48.190;16.366;2024-01-30T06:29:00;4.30;99.90
33645;DHT22;19986;48.190;16.366;2024-01-30T06:31:26;4.30;99.90
33645;DHT22;19986;48.190;16.366;2024-01-30T06:33:52;4.30;99.90
33645;DHT22;19986;48.190;16.366;2024-01-30T06:36:17;4.30;99.90
33645;DHT22;19986;48.190;16.366;2024-01-30T06:38:45;4.20;99.90
33645;DHT22;19986;48.190;16.366;2024-01-30T06:41:11;4.30;99.90
33645;DHT22;19986;48.190;16.366;2024-01-30T06:43:37;4.30;99.90
33645;DHT22;19986;48.190;16.366;2024-01-30T06:46:03;4.30;99.90
33645;DHT22;19986;48.190;16.366;2024-01-30T06:48:29;4.40;99.90
33645;DHT22;19986;48.190;16.366;2024-01-30T06:50:57;4.40;99.90
33645;DHT22;19986;48.190;16.366;2024-01-30T06:53:23;4.40;99.90
33645;DHT22;19986;48.190;16.366;2024-01-30T06:55:49;4.40;99.90
33645;DHT22;19986;48.190;16.366;2024-01-30T06:58:15;4.40;99.90
33645;DHT22;19986;48.190;16.366;2024-01-30T07:00:40;4.40;99.90
33645;DHT22;19986;48.190;16.366;2024-01-30T07:03:09;4.50;99.90
33645;DHT22;19986;48.190;16.366;2024-01-30T07:05:35;4.40;99.90
33645;DHT22;19986;48.190;16.366;2024-01-30T07:08:01;4.40;99.90
33645;DHT22;19986;48.190;16.366;2024-01-30T07:10:27;4.40;99.90
33645;DHT22;19986;48.190;16.366;2024-01-30T07:12:54;4.60;99.90
33645;DHT22;19986;48.190;16.366;2024-01-30T07:15:20;4.50;99.90
33645;DHT22;19986;48.190;16.366;2024-01-30T07:17:46;4.50;99.90
33645;DHT22;19986;48.190;16.366;2024-01-30T07:20:13;4.50;99.90
33645;DHT22;19986;48.190;16.366;2024-01-30T07:22:40;4.50;99.90
33645;DHT22;19986;48.190;16.366;2024-01-30T07:25:06;4.60;99.90
33645;DHT22;19986;48.190;16.366;2024-01-30T07:27:32;4.60;99.90
33645;DHT22;19986;48.190;16.366;2024-01-30T07:29:58;4.60;99.90
33645;DHT22;19986;48.190;16.366;2024-01-30T07:32:24;4.70;99.90
33645;DHT22;19986;48.190;16.366;2024-01-30T07:35:06;4.80;99.90
33645;DHT22;19986;48.190;16.366;2024-01-30T07:37:32;4.80;99.90
33645;DHT22;19986;48.190;16.366;2024-01-30T07:39:58;4.80;99.90
33645;DHT22;19986;48.190;16.366;2024-01-30T07:42:24;4.80;99.90
33645;DHT22;19986;48.190;16.366;2024-01-30T07:44:50;4.80;99.90
33645;DHT22;19986;48.190;16.366;2024-01-30T07:47:16;4.90;99.90
33645;DHT22;19986;48.190;16.366;2024-01-30T07:49:42;4.90;99.90
33645;DHT22;19986;48.190;16.366;2024-01-30T07:52:07;5.00;99.90
33645;DHT22;19986;48.190;16.366;2024-01-30T07:54:34;4.90;99.90
33645;DHT22;19986;48.190;16.366;2024-01-30T07:57:16;4.90;99.90
33645;DHT22;19986;48.190;16.366;2024-01-30T07:59:45;4.90;99.90
33645;DHT22;19986;48.190;16.366;2024-01-30T08:02:14;4.90;99.90
33645;DHT22;19986;48.190;16.366;2024-01-30T08:04:40;4.90;99.90
33645;DHT22;19986;48.190;16.366;2024-01-30T08:07:06;5.00;99.90
33645;DHT22;19986;48.190;16.366;2024-01-30T08:09:33;5.00;99.90
33645;DHT22;19986;48.190;16.366;2024-01-30T08:11:59;5.00;99.90
33645;DHT22;19986;48.190;16.366;2024-01-30T08:14:25;5.10;99.90
33645;DHT22;19986;48.190;16.366;2024-01-30T08:16:51;5.10;99.90
33645;DHT22;19986;48.190;16.366;2024-01-30T08:19:17;5.00;99.90
33645;DHT22;19986;48.190;16.366;2024-01-30T08:21:43;5.10;99.90
33645;DHT22;19986;48.190;16.366;2024-01-30T08:24:09;5.20;99.90
33645;DHT22;19986;48.190;16.366;2024-01-30T08:26:36;5.30;99.90
33645;DHT22;19986;48.190;16.366;2024-01-30T08:29:02;5.30;99.90
33645;DHT22;19986;48.190;16.366;2024-01-30T08:31:28;5.40;99.90
33645;DHT22;19986;48.190;16.366;2024-01-30T08:33:55;5.40;99.90
33645;DHT22;19986;48.190;16.366;2024-01-30T08:36:20;5.40;99.90
33645;DHT22;19986;48.190;16.366;2024-01-30T08:38:46;5.50;99.90
33645;DHT22;19986;48.190;16.366;2024-01-30T08:41:13;5.50;99.90
33645;DHT22;19986;48.190;16.366;2024-01-30T08:43:39;5.60;99.90
33645;DHT22;19986;48.190;16.366;2024-01-30T08:46:05;5.50;99.90
33645;DHT22;19986;48.190;16.366;2024-01-30T08:48:31;5.60;99.90
33645;DHT22;19986;48.190;16.366;2024-01-30T08:50:57;5.70;99.90
33645;DHT22;19986;48.190;16.366;2024-01-30T08:53:23;5.80;99.90
33645;DHT22;19986;48.190;16.366;2024-01-30T08:55:50;5.80;99.90
33645;DHT22;19986;48.190;16.366;2024-01-30T08:58:16;5.80;99.90
33645;DHT22;19986;48.190;16.366;2024-01-30T09:00:44;5.90;99.90
33645;DHT22;19986;48.190;16.366;2024-01-30T09:03:10;5.90;99.90
33645;DHT22;19986;48.190;16.366;2024-01-30T09:05:35;5.90;99.90
33645;DHT22;19986;48.190;16.366;2024-01-30T09:08:01;6.00;99.90
33645;DHT22;19986;48.190;16.366;2024-01-30T09:10:27;6.00;99.90
33645;DHT22;19986;48.190;16.366;2024-01-30T09:12:53;6.00;99.90
33645;DHT22;19986;48.190;16.366;2024-01-30T09:15:19;6.10;99.90
33645;DHT22;19986;48.190;16.366;2024-01-30T09:17:46;6.10;99.90
33645;DHT22;19986;48.190;16.366;2024-01-30T09:20:15;6.20;99.90
33645;DHT22;19986;48.190;16.366;2024-01-30T09:22:41;6.20;99.90
33645;DHT22;19986;48.190;16.366;2024-01-30T09:25:07;6.30;99.90
33645;DHT22;19986;48.190;16.366;2024-01-30T09:27:33;6.40;99.90
33645;DHT22;19986;48.190;16.366;2024-01-30T09:29:58;6.50;99.90
33645;DHT22;19986;48.190;16.366;2024-01-30T09:32:25;6.50;99.90
33645;DHT22;19986;48.190;16.366;2024-01-30T09:34:51;6.60;99.90
33645;DHT22;19986;48.190;16.366;2024-01-30T09:37:17;6.50;99.90
33645;DHT22;19986;48.190;16.366;2024-01-30T09:39:43;6.50;99.90
33645;DHT22;19986;48.190;16.366;2024-01-30T09:42:26;6.60;99.90
33645;DHT22;19986;48.190;16.366;2024-01-30T09:44:54;6.60;99.90
33645;DHT22;19986;48.190;16.366;2024-01-30T09:47:20;6.50;99.90
33645;DHT22;19986;48.190;16.366;2024-01-30T09:49:46;6.60;99.90
33645;DHT22;19986;48.190;16.366;2024-01-30T09:52:13;6.60;99.90
33645;DHT22;19986;48.190;16.366;2024-01-30T09:54:41;6.70;99.90
33645;DHT22;19986;48.190;16.366;2024-01-30T09:57:07;6.80;99.90
33645;DHT22;19986;48.190;16.366;2024-01-30T09:59:34;6.80;99.90
33645;DHT22;19986;48.190;16.366;2024-01-30T10:02:00;6.80;99.90
33645;DHT22;19986;48.190;16.366;2024-01-30T10:04:26;6.90;99.90
33645;DHT22;19986;48.190;16.366;2024-01-30T10:06:52;6.90;99.90
33645;DHT22;19986;48.190;16.366;2024-01-30T10:09:19;6.90;99.90
33645;DHT22;19986;48.190;16.366;2024-01-30T10:11:45;6.90;99.90
33645;DHT22;19986;48.190;16.366;2024-01-30T10:14:11;7.00;99.90
33645;DHT22;19986;48.190;16.366;2024-01-30T10:16:37;7.00;99.90
33645;DHT22;19986;48.190;16.366;2024-01-30T10:19:03;7.00;99.90
33645;DHT22;19986;48.190;16.366;2024-01-30T10:21:30;7.10;99.90
33645;DHT22;19986;48.190;16.366;2024-01-30T10:23:56;7.10;99.90
33645;DHT22;19986;48.190;16.366;2024-01-30T10:26:22;7.10;99.90
33645;DHT22;19986;48.190;16.366;2024-01-30T10:28:48;7.20;99.90
33645;DHT22;19986;48.190;16.366;2024-01-30T10:31:18;7.30;99.90
33645;DHT22;19986;48.190;16.366;2024-01-30T10:33:46;7.20;99.90
33645;DHT22;19986;48.190;16.366;2024-01-30T10:36:14;7.30;99.90
33645;DHT22;19986;48.190;16.366;2024-01-30T10:38:43;7.40;99.90
33645;DHT22;19986;48.190;16.366;2024-01-30T10:41:13;7.50;99.90
33645;DHT22;19986;48.190;16.366;2024-01-30T10:43:41;7.50;99.90
33645;DHT22;19986;48.190;16.366;2024-01-30T10:46:19;7.60;99.90
33645;DHT22;19986;48.190;16.366;2024-01-30T10:48:58;7.60;99.90
33645;DHT22;19986;48.190;16.366;2024-01-30T10:51:27;7.70;99.90
33645;DHT22;19986;48.190;16.366;2024-01-30T10:53:53;7.70;99.90
33645;DHT22;19986;48.190;16.366;2024-01-30T10:56:21;7.80;99.90
33645;DHT22;19986;48.190;16.366;2024-01-30T10:58:50;7.80;99.90
33645;DHT22;19986;48.190;16.366;2024-01-30T11:01:17;7.80;99.90
33645;DHT22;19986;48.190;16.366;2024-01-30T11:03:44;7.90;99.90
33645;DHT22;19986;48.190;16.366;2024-01-30T11:06:14;7.90;99.90
33645;DHT22;19986;48.190;16.366;2024-01-30T11:08:44;7.90;99.90
33645;DHT22;19986;48.190;16.366;2024-01-30T11:11:10;8.00;99.90
33645;DHT22;19986;48.190;16.366;2024-01-30T11:13:36;8.00;99.90
33645;DHT22;19986;48.190;16.366;2024-01-30T11:16:06;8.10;99.90
33645;DHT22;19986;48.190;16.366;2024-01-30T11:18:33;8.20;99.90
33645;DHT22;19986;48.190;16.366;2024-01-30T11:20:59;8.30;99.90
33645;DHT22;19986;48.190;16.366;2024-01-30T11:23:31;8.30;99.90
33645;DHT22;19986;48.190;16.366;2024-01-30T11:25:58;8.30;99.90
33645;DHT22;19986;48.190;16.366;2024-01-30T11:28:24;8.30;99.90
33645;DHT22;19986;48.190;16.366;2024-01-30T11:31:04;8.40;99.90
33645;DHT22;19986;48.190;16.366;2024-01-30T11:33:30;8.50;99.90
33645;DHT22;19986;48.190;16.366;2024-01-30T11:36:00;8.50;99.90
33645;DHT22;19986;48.190;16.366;2024-01-30T11:38:27;8.60;99.90
33645;DHT22;19986;48.190;16.366;2024-01-30T11:40:54;8.70;99.90
33645;DHT22;19986;48.190;16.366;2024-01-30T11:43:23;8.70;99.90
33645;DHT22;19986;48.190;16.366;2024-01-30T11:45:50;8.80;99.90
33645;DHT22;19986;48.190;16.366;2024-01-30T11:48:16;8.70;99.90
33645;DHT22;19986;48.190;16.366;2024-01-30T11:50:43;8.70;99.90
33645;DHT22;19986;48.190;16.366;2024-01-30T11:53:11;8.70;99.90
33645;DHT22;19986;48.190;16.366;2024-01-30T11:55:37;8.70;99.90
33645;DHT22;19986;48.190;16.366;2024-01-30T11:58:04;8.70;99.90
33645;DHT22;19986;48.190;16.366;2024-01-30T12:00:30;8.70;99.90
33645;DHT22;19986;48.190;16.366;2024-01-30T12:02:59;8.80;99.90
33645;DHT22;19986;48.190;16.366;2024-01-30T12:05:26;8.90;99.90
33645;DHT22;19986;48.190;16.366;2024-01-30T12:07:52;8.90;99.90
33645;DHT22;19986;48.190;16.366;2024-01-30T12:10:18;9.00;99.90
33645;DHT22;19986;48.190;16.366;2024-01-30T12:12:49;9.00;99.90
33645;DHT22;19986;48.190;16.366;2024-01-30T12:15:15;9.00;99.90
33645;DHT22;19986;48.190;16.366;2024-01-30T12:17:41;9.00;99.90
33645;DHT22;19986;48.190;16.366;2024-01-30T12:20:17;8.90;99.90
33645;DHT22;19986;48.190;16.366;2024-01-30T12:22:44;8.90;99.90
33645;DHT22;19986;48.190;16.366;2024-01-30T12:25:11;8.90;99.90
33645;DHT22;19986;48.190;16.366;2024-01-30T12:27:37;8.80;99.90
33645;DHT22;19986;48.190;16.366;2024-01-30T12:30:08;8.90;99.90
33645;DHT22;19986;48.190;16.366;2024-01-30T12:32:35;8.90;99.90
33645;DHT22;19986;48.190;16.366;2024-01-30T12:35:02;9.00;99.90
33645;DHT22;19986;48.190;16.366;2024-01-30T12:37:29;9.00;99.90
33645;DHT22;19986;48.190;16.366;2024-01-30T12:39:55;9.10;99.90
33645;DHT22;19986;48.190;16.366;2024-01-30T12:42:22;9.10;99.90
33645;DHT22;19986;48.190;16.366;2024-01-30T12:44:49;9.10;99.90
33645;DHT22;19986;48.190;16.366;2024-01-30T12:47:15;9.10;99.90
33645;DHT22;19986;48.190;16.366;2024-01-30T12:49:44;9.10;99.90
33645;DHT22;19986;48.190;16.366;2024-01-30T12:52:11;9.10;99.90
33645;DHT22;19986;48.190;16.366;2024-01-30T12:54:40;9.20;99.90
33645;DHT22;19986;48.190;16.366;2024-01-30T12:57:06;9.20;99.90
33645;DHT22;19986;48.190;16.366;2024-01-30T12:59:37;9.10;99.90
33645;DHT22;19986;48.190;16.366;2024-01-30T13:02:03;9.10;99.90
33645;DHT22;19986;48.190;16.366;2024-01-30T13:04:29;9.10;99.90
33645;DHT22;19986;48.190;16.366;2024-01-30T13:06:55;9.00;99.90
33645;DHT22;19986;48.190;16.366;2024-01-30T13:09:22;9.10;99.90
33645;DHT22;19986;48.190;16.366;2024-01-30T13:11:53;9.10;99.90
33645;DHT22;19986;48.190;16.366;2024-01-30T13:14:19;9.10;99.90
33645;DHT22;19986;48.190;16.366;2024-01-30T13:16:45;9.20;99.90
33645;DHT22;19986;48.190;16.366;2024-01-30T13:19:11;9.20;99.90
33645;DHT22;19986;48.190;16.366;2024-01-30T13:21:38;9.20;99.90
33645;DHT22;19986;48.190;16.366;2024-01-30T13:24:05;9.30;99.90
33645;DHT22;19986;48.190;16.366;2024-01-30T13:26:34;9.30;99.90
33645;DHT22;19986;48.190;16.366;2024-01-30T13:29:00;9.30;99.90
33645;DHT22;19986;48.190;16.366;2024-01-30T13:31:26;9.30;99.90
33645;DHT22;19986;48.190;16.366;2024-01-30T13:33:53;9.30;99.90
33645;DHT22;19986;48.190;16.366;2024-01-30T13:36:21;9.30;99.90
33645;DHT22;19986;48.190;16.366;2024-01-30T13:38:47;9.40;99.90
33645;DHT22;19986;48.190;16.366;2024-01-30T13:41:13;9.40;99.90
33645;DHT22;19986;48.190;16.366;2024-01-30T13:43:39;9.50;99.90
33645;DHT22;19986;48.190;16.366;2024-01-30T13:46:05;9.50;99.90
33645;DHT22;19986;48.190;16.366;2024-01-30T13:48:31;9.40;99.90
33645;DHT22;19986;48.190;16.366;2024-01-30T13:50:57;9.40;99.90
33645;DHT22;19986;48.190;16.366;2024-01-30T13:53:23;9.50;99.90
33645;DHT22;19986;48.190;16.366;2024-01-30T13:55:49;9.50;99.90
33645;DHT22;19986;48.190;16.366;2024-01-30T13:58:15;9.60;99.90
33645;DHT22;19986;48.190;16.366;2024-01-30T14:00:41;9.50;99.90
33645;DHT22;19986;48.190;16.366;2024-01-30T14:03:07;9.40;99.90
33645;DHT22;19986;48.190;16.366;2024-01-30T14:05:33;9.40;99.90
33645;DHT22;19986;48.190;16.366;2024-01-30T14:08:00;9.40;99.90
33645;DHT22;19986;48.190;16.366;2024-01-30T14:10:26;9.40;99.90
33645;DHT22;19986;48.190;16.366;2024-01-30T14:12:52;9.30;99.90
33645;DHT22;19986;48.190;16.366;2024-01-30T14:15:18;9.40;99.90
33645;DHT22;19986;48.190;16.366;2024-01-30T14:17:44;9.40;99.90
33645;DHT22;19986;48.190;16.366;2024-01-30T14:20:14;9.40;99.90
33645;DHT22;19986;48.190;16.366;2024-01-30T14:22:42;9.40;99.90
33645;DHT22;19986;48.190;16.366;2024-01-30T14:25:08;9.30;99.90
33645;DHT22;19986;48.190;16.366;2024-01-30T14:27:35;9.30;99.90
33645;DHT22;19986;48.190;16.366;2024-01-30T14:30:01;9.40;99.90
33645;DHT22;19986;48.190;16.366;2024-01-30T14:32:27;9.40;99.90
33645;DHT22;19986;48.190;16.366;2024-01-30T14:34:52;9.40;99.90
33645;DHT22;19986;48.190;16.366;2024-01-30T14:37:19;9.30;99.90
33645;DHT22;19986;48.190;16.366;2024-01-30T14:39:45;9.30;99.90
33645;DHT22;19986;48.190;16.366;2024-01-30T14:42:11;9.30;99.90
33645;DHT22;19986;48.190;16.366;2024-01-30T14:44:37;9.40;99.90
33645;DHT22;19986;48.190;16.366;2024-01-30T14:47:03;9.40;99.90
33645;DHT22;19986;48.190;16.366;2024-01-30T14:49:29;9.30;99.90
33645;DHT22;19986;48.190;16.366;2024-01-30T14:51:55;9.30;99.90
33645;DHT22;19986;48.190;16.366;2024-01-30T14:54:21;9.20;99.90
33645;DHT22;19986;48.190;16.366;2024-01-30T14:56:47;9.30;99.90
33645;DHT22;19986;48.190;16.366;2024-01-30T14:59:13;9.30;99.90
33645;DHT22;19986;48.190;16.366;2024-01-30T15:01:39;9.30;99.90
33645;DHT22;19986;48.190;16.366;2024-01-30T15:04:04;9.20;99.90
33645;DHT22;19986;48.190;16.366;2024-01-30T15:06:30;9.20;99.90
33645;DHT22;19986;48.190;16.366;2024-01-30T15:08:56;9.20;99.90
33645;DHT22;19986;48.190;16.366;2024-01-30T15:11:22;9.20;99.90
33645;DHT22;19986;48.190;16.366;2024-01-30T15:13:48;9.10;99.90
33645;DHT22;19986;48.190;16.366;2024-01-30T15:16:14;9.10;99.90
33645;DHT22;19986;48.190;16.366;2024-01-30T15:18:40;9.10;99.90
33645;DHT22;19986;48.190;16.366;2024-01-30T15:21:06;9.10;99.90
33645;DHT22;19986;48.190;16.366;2024-01-30T15:23:31;9.10;99.90
33645;DHT22;19986;48.190;16.366;2024-01-30T15:25:57;9.00;99.90